sensor_id;sensor_type;location;lat;lon;timestamp;P1;durP1;ratioP1;P2;durP2;ratioP2
39490;SDS011;25175;50.140;18.990;2022-07-23T00:01:37;26.35;;;15.20;;
39490;SDS011;25175;50.140;18.990;2022-07-23T00:04:39;28.70;;;14.90;;
39490;SDS011;25175;50.140;18.990;2022-07-23T00:07:42;30.15;;;14.73;;
39490;SDS011;25175;50.140;18.990;2022-07-23T00:10:44;26.35;;;14.30;;
39490;SDS011;25175;50.140;18.990;2022-07-23T00:13:47;23.13;;;14.32;;
39490;SDS011;25175;50.140;18.990;2022-07-23T00:16:49;30.40;;;14.35;;
39490;SDS011;25175;50.140;18.990;2022-07-23T00:19:51;22.80;;;14.35;;
39490;SDS011;25175;50.140;18.990;2022-07-23T00:22:56;29.60;;;16.33;;
39490;SDS011;25175;50.140;18.990;2022-07-23T00:25:58;22.45;;;14.30;;
39490;SDS011;25175;50.140;18.990;2022-07-23T00:29:00;22.60;;;13.57;;
39490;SDS011;25175;50.140;18.990;2022-07-23T00:32:02;27.55;;;14.02;;
39490;SDS011;25175;50.140;18.990;2022-07-23T00:35:05;26.33;;;14.93;;
39490;SDS011;25175;50.140;18.990;2022-07-23T00:38:09;31.08;;;15.13;;
39490;SDS011;25175;50.140;18.990;2022-07-23T00:41:12;29.50;;;14.70;;
39490;SDS011;25175;50.140;18.990;2022-07-23T00:44:14;26.23;;;15.00;;
39490;SDS011;25175;50.140;18.990;2022-07-23T00:47:18;30.88;;;15.32;;
39490;SDS011;25175;50.140;18.990;2022-07-23T00:50:20;33.42;;;15.60;;
39490;SDS011;25175;50.140;18.990;2022-07-23T00:53:23;29.70;;;16.08;;
39490;SDS011;25175;50.140;18.990;2022-07-23T00:56:26;35.20;;;16.50;;
39490;SDS011;25175;50.140;18.990;2022-07-23T00:59:28;29.17;;;15.32;;
39490;SDS011;25175;50.140;18.990;2022-07-23T01:02:31;28.27;;;15.95;;
39490;SDS011;25175;50.140;18.990;2022-07-23T01:05:33;31.80;;;16.05;;
39490;SDS011;25175;50.140;18.990;2022-07-23T01:08:37;30.67;;;15.90;;
39490;SDS011;25175;50.140;18.990;2022-07-23T01:11:39;24.92;;;15.43;;
39490;SDS011;25175;50.140;18.990;2022-07-23T01:14:44;31.65;;;16.33;;
39490;SDS011;25175;50.140;18.990;2022-07-23T01:17:46;28.70;;;15.68;;
39490;SDS011;25175;50.140;18.990;2022-07-23T01:20:48;24.48;;;15.32;;
39490;SDS011;25175;50.140;18.990;2022-07-23T01:23:52;30.83;;;14.88;;
39490;SDS011;25175;50.140;18.990;2022-07-23T01:26:54;26.70;;;14.73;;
39490;SDS011;25175;50.140;18.990;2022-07-23T01:29:57;26.77;;;14.35;;
39490;SDS011;25175;50.140;18.990;2022-07-23T01:33:01;27.58;;;14.48;;
39490;SDS011;25175;50.140;18.990;2022-07-23T01:36:05;34.47;;;15.60;;
39490;SDS011;25175;50.140;18.990;2022-07-23T01:39:09;29.08;;;14.98;;
39490;SDS011;25175;50.140;18.990;2022-07-23T01:42:11;27.10;;;15.77;;
39490;SDS011;25175;50.140;18.990;2022-07-23T01:45:13;26.40;;;15.52;;
39490;SDS011;25175;50.140;18.990;2022-07-23T01:48:20;27.40;;;16.17;;
39490;SDS011;25175;50.140;18.990;2022-07-23T01:51:43;28.60;;;15.60;;
39490;SDS011;25175;50.140;18.990;2022-07-23T01:55:00;28.23;;;15.37;;
39490;SDS011;25175;50.140;18.990;2022-07-23T01:58:02;25.05;;;15.73;;
39490;SDS011;25175;50.140;18.990;2022-07-23T02:01:06;29.08;;;15.80;;
39490;SDS011;25175;50.140;18.990;2022-07-23T02:04:08;30.38;;;15.98;;
39490;SDS011;25175;50.140;18.990;2022-07-23T02:07:10;30.48;;;16.98;;
39490;SDS011;25175;50.140;18.990;2022-07-23T02:10:15;34.25;;;17.45;;
39490;SDS011;25175;50.140;18.990;2022-07-23T02:13:17;33.83;;;17.15;;
39490;SDS011;25175;50.140;18.990;2022-07-23T02:16:19;33.58;;;17.58;;
39490;SDS011;25175;50.140;18.990;2022-07-23T02:19:22;32.30;;;18.58;;
39490;SDS011;25175;50.140;18.990;2022-07-23T02:22:24;35.13;;;17.85;;
39490;SDS011;25175;50.140;18.990;2022-07-23T02:25:27;30.92;;;16.38;;
39490;SDS011;25175;50.140;18.990;2022-07-23T02:28:34;31.98;;;16.13;;
39490;SDS011;25175;50.140;18.990;2022-07-23T02:31:36;32.10;;;17.67;;
39490;SDS011;25175;50.140;18.990;2022-07-23T02:34:40;32.38;;;16.60;;
39490;SDS011;25175;50.140;18.990;2022-07-23T02:37:42;34.92;;;17.58;;
39490;SDS011;25175;50.140;18.990;2022-07-23T02:40:46;31.02;;;16.80;;
39490;SDS011;25175;50.140;18.990;2022-07-23T02:43:48;33.95;;;17.25;;
39490;SDS011;25175;50.140;18.990;2022-07-23T02:46:51;31.95;;;16.35;;
39490;SDS011;25175;50.140;18.990;2022-07-23T02:49:53;31.05;;;16.35;;
39490;SDS011;25175;50.140;18.990;2022-07-23T02:52:56;28.33;;;15.70;;
39490;SDS011;25175;50.140;18.990;2022-07-23T02:56:01;29.50;;;15.40;;
39490;SDS011;25175;50.140;18.990;2022-07-23T02:59:03;30.83;;;15.57;;
39490;SDS011;25175;50.140;18.990;2022-07-23T03:02:06;33.03;;;15.75;;
39490;SDS011;25175;50.140;18.990;2022-07-23T03:05:08;28.38;;;16.42;;
39490;SDS011;25175;50.140;18.990;2022-07-23T03:08:13;29.05;;;15.85;;
39490;SDS011;25175;50.140;18.990;2022-07-23T03:11:19;29.75;;;16.20;;
39490;SDS011;25175;50.140;18.990;2022-07-23T03:14:22;22.15;;;15.07;;
39490;SDS011;25175;50.140;18.990;2022-07-23T03:17:25;27.00;;;14.68;;
39490;SDS011;25175;50.140;18.990;2022-07-23T03:20:27;25.77;;;15.57;;
39490;SDS011;25175;50.140;18.990;2022-07-23T03:23:29;24.58;;;15.90;;
39490;SDS011;25175;50.140;18.990;2022-07-23T03:26:33;28.38;;;15.88;;
39490;SDS011;25175;50.140;18.990;2022-07-23T03:29:35;29.55;;;15.30;;
39490;SDS011;25175;50.140;18.990;2022-07-23T03:32:38;27.80;;;15.70;;
39490;SDS011;25175;50.140;18.990;2022-07-23T03:35:40;28.45;;;15.93;;
39490;SDS011;25175;50.140;18.990;2022-07-23T03:38:59;25.42;;;15.55;;
39490;SDS011;25175;50.140;18.990;2022-07-23T03:42:02;29.40;;;16.75;;
39490;SDS011;25175;50.140;18.990;2022-07-23T03:45:05;28.00;;;15.80;;
39490;SDS011;25175;50.140;18.990;2022-07-23T03:48:07;25.60;;;16.23;;
39490;SDS011;25175;50.140;18.990;2022-07-23T03:51:10;26.23;;;15.35;;
39490;SDS011;25175;50.140;18.990;2022-07-23T03:54:12;25.95;;;14.95;;
39490;SDS011;25175;50.140;18.990;2022-07-23T03:57:15;24.98;;;14.95;;
39490;SDS011;25175;50.140;18.990;2022-07-23T04:00:17;23.88;;;15.35;;
39490;SDS011;25175;50.140;18.990;2022-07-23T04:03:24;27.57;;;16.23;;
39490;SDS011;25175;50.140;18.990;2022-07-23T04:06:27;27.27;;;17.30;;
39490;SDS011;25175;50.140;18.990;2022-07-23T04:09:31;28.80;;;17.60;;
39490;SDS011;25175;50.140;18.990;2022-07-23T04:12:35;29.10;;;17.48;;
39490;SDS011;25175;50.140;18.990;2022-07-23T04:15:38;30.67;;;17.08;;
39490;SDS011;25175;50.140;18.990;2022-07-23T04:18:40;33.38;;;18.17;;
39490;SDS011;25175;50.140;18.990;2022-07-23T04:21:52;28.42;;;17.27;;
39490;SDS011;25175;50.140;18.990;2022-07-23T04:24:54;29.65;;;17.33;;
39490;SDS011;25175;50.140;18.990;2022-07-23T04:27:57;41.97;;;16.83;;
39490;SDS011;25175;50.140;18.990;2022-07-23T04:31:00;32.03;;;16.65;;
39490;SDS011;25175;50.140;18.990;2022-07-23T04:34:03;29.35;;;16.67;;
39490;SDS011;25175;50.140;18.990;2022-07-23T04:37:08;29.75;;;17.10;;
39490;SDS011;25175;50.140;18.990;2022-07-23T04:40:11;29.73;;;17.00;;
39490;SDS011;25175;50.140;18.990;2022-07-23T04:43:16;31.42;;;17.17;;
39490;SDS011;25175;50.140;18.990;2022-07-23T04:46:21;31.77;;;17.97;;
39490;SDS011;25175;50.140;18.990;2022-07-23T04:49:25;27.77;;;17.08;;
39490;SDS011;25175;50.140;18.990;2022-07-23T04:52:28;29.77;;;18.00;;
39490;SDS011;25175;50.140;18.990;2022-07-23T04:55:31;28.73;;;17.83;;
39490;SDS011;25175;50.140;18.990;2022-07-23T04:58:35;35.60;;;18.70;;
39490;SDS011;25175;50.140;18.990;2022-07-23T05:01:37;30.38;;;18.10;;
39490;SDS011;25175;50.140;18.990;2022-07-23T05:04:39;29.38;;;17.95;;
39490;SDS011;25175;50.140;18.990;2022-07-23T05:07:41;29.13;;;17.17;;
39490;SDS011;25175;50.140;18.990;2022-07-23T05:10:44;31.48;;;17.88;;
39490;SDS011;25175;50.140;18.990;2022-07-23T05:13:49;34.50;;;18.67;;
39490;SDS011;25175;50.140;18.990;2022-07-23T05:16:53;32.05;;;18.02;;
39490;SDS011;25175;50.140;18.990;2022-07-23T05:19:57;34.75;;;17.80;;
39490;SDS011;25175;50.140;18.990;2022-07-23T05:23:00;27.00;;;17.13;;
39490;SDS011;25175;50.140;18.990;2022-07-23T05:26:03;29.35;;;17.25;;
39490;SDS011;25175;50.140;18.990;2022-07-23T05:29:08;32.42;;;17.73;;
39490;SDS011;25175;50.140;18.990;2022-07-23T05:32:10;34.90;;;19.20;;
39490;SDS011;25175;50.140;18.990;2022-07-23T05:35:17;39.78;;;19.67;;
39490;SDS011;25175;50.140;18.990;2022-07-23T05:38:32;36.80;;;19.23;;
39490;SDS011;25175;50.140;18.990;2022-07-23T05:41:38;33.60;;;19.48;;
39490;SDS011;25175;50.140;18.990;2022-07-23T05:44:42;35.33;;;18.90;;
39490;SDS011;25175;50.140;18.990;2022-07-23T05:47:45;33.50;;;18.15;;
39490;SDS011;25175;50.140;18.990;2022-07-23T05:50:55;40.50;;;18.92;;
39490;SDS011;25175;50.140;18.990;2022-07-23T05:54:04;30.30;;;18.83;;
39490;SDS011;25175;50.140;18.990;2022-07-23T05:57:12;35.65;;;19.02;;
39490;SDS011;25175;50.140;18.990;2022-07-23T06:00:15;42.67;;;20.33;;
39490;SDS011;25175;50.140;18.990;2022-07-23T06:03:20;35.30;;;19.63;;
39490;SDS011;25175;50.140;18.990;2022-07-23T06:06:22;33.85;;;18.88;;
39490;SDS011;25175;50.140;18.990;2022-07-23T06:09:25;32.83;;;19.63;;
39490;SDS011;25175;50.140;18.990;2022-07-23T06:12:27;34.78;;;19.55;;
39490;SDS011;25175;50.140;18.990;2022-07-23T06:15:31;32.45;;;18.15;;
39490;SDS011;25175;50.140;18.990;2022-07-23T06:18:33;34.63;;;18.73;;
39490;SDS011;25175;50.140;18.990;2022-07-23T06:21:35;30.40;;;16.70;;
39490;SDS011;25175;50.140;18.990;2022-07-23T06:24:37;30.27;;;17.55;;
39490;SDS011;25175;50.140;18.990;2022-07-23T06:27:39;35.90;;;17.30;;
39490;SDS011;25175;50.140;18.990;2022-07-23T06:30:43;30.08;;;17.48;;
39490;SDS011;25175;50.140;18.990;2022-07-23T06:33:45;31.48;;;18.25;;
39490;SDS011;25175;50.140;18.990;2022-07-23T06:36:48;43.75;;;21.92;;
39490;SDS011;25175;50.140;18.990;2022-07-23T06:39:50;32.60;;;19.77;;
39490;SDS011;25175;50.140;18.990;2022-07-23T06:42:52;54.40;;;27.92;;
39490;SDS011;25175;50.140;18.990;2022-07-23T06:45:58;48.47;;;25.95;;
39490;SDS011;25175;50.140;18.990;2022-07-23T06:49:01;54.47;;;26.60;;
39490;SDS011;25175;50.140;18.990;2022-07-23T06:52:04;52.63;;;26.77;;
39490;SDS011;25175;50.140;18.990;2022-07-23T06:55:07;49.75;;;24.67;;
39490;SDS011;25175;50.140;18.990;2022-07-23T06:58:10;49.50;;;22.45;;
39490;SDS011;25175;50.140;18.990;2022-07-23T07:01:15;44.15;;;21.85;;
39490;SDS011;25175;50.140;18.990;2022-07-23T07:04:17;36.03;;;19.75;;
39490;SDS011;25175;50.140;18.990;2022-07-23T07:07:20;29.52;;;17.33;;
39490;SDS011;25175;50.140;18.990;2022-07-23T07:10:22;28.77;;;15.60;;
39490;SDS011;25175;50.140;18.990;2022-07-23T07:13:24;28.45;;;16.73;;
39490;SDS011;25175;50.140;18.990;2022-07-23T07:16:28;31.00;;;16.95;;
39490;SDS011;25175;50.140;18.990;2022-07-23T07:19:30;37.47;;;16.50;;
39490;SDS011;25175;50.140;18.990;2022-07-23T07:22:32;33.45;;;16.08;;
39490;SDS011;25175;50.140;18.990;2022-07-23T07:25:34;30.58;;;16.20;;
39490;SDS011;25175;50.140;18.990;2022-07-23T07:28:37;28.98;;;15.98;;
39490;SDS011;25175;50.140;18.990;2022-07-23T07:31:40;28.38;;;16.10;;
39490;SDS011;25175;50.140;18.990;2022-07-23T07:34:42;39.33;;;14.35;;
39490;SDS011;25175;50.140;18.990;2022-07-23T07:37:45;26.92;;;14.60;;
39490;SDS011;25175;50.140;18.990;2022-07-23T07:40:47;25.38;;;14.25;;
39490;SDS011;25175;50.140;18.990;2022-07-23T07:43:49;32.08;;;14.80;;
39490;SDS011;25175;50.140;18.990;2022-07-23T07:46:53;32.17;;;15.00;;
39490;SDS011;25175;50.140;18.990;2022-07-23T07:49:55;29.80;;;15.73;;
39490;SDS011;25175;50.140;18.990;2022-07-23T07:52:57;27.98;;;14.65;;
39490;SDS011;25175;50.140;18.990;2022-07-23T07:55:59;27.98;;;14.82;;
39490;SDS011;25175;50.140;18.990;2022-07-23T07:59:01;29.33;;;13.70;;
39490;SDS011;25175;50.140;18.990;2022-07-23T08:02:05;20.85;;;13.73;;
39490;SDS011;25175;50.140;18.990;2022-07-23T08:05:08;23.13;;;13.23;;
39490;SDS011;25175;50.140;18.990;2022-07-23T08:08:11;22.73;;;13.15;;
39490;SDS011;25175;50.140;18.990;2022-07-23T08:11:15;21.40;;;12.35;;
39490;SDS011;25175;50.140;18.990;2022-07-23T08:14:17;18.75;;;12.35;;
39490;SDS011;25175;50.140;18.990;2022-07-23T08:17:21;21.30;;;12.45;;
39490;SDS011;25175;50.140;18.990;2022-07-23T08:20:23;23.90;;;13.07;;
39490;SDS011;25175;50.140;18.990;2022-07-23T08:23:27;21.35;;;12.13;;
39490;SDS011;25175;50.140;18.990;2022-07-23T08:26:29;23.13;;;12.32;;
39490;SDS011;25175;50.140;18.990;2022-07-23T08:29:31;23.20;;;12.80;;
39490;SDS011;25175;50.140;18.990;2022-07-23T08:32:35;21.65;;;12.27;;
39490;SDS011;25175;50.140;18.990;2022-07-23T08:35:50;22.00;;;11.90;;
39490;SDS011;25175;50.140;18.990;2022-07-23T08:38:53;19.80;;;11.55;;
39490;SDS011;25175;50.140;18.990;2022-07-23T08:41:55;25.35;;;11.98;;
39490;SDS011;25175;50.140;18.990;2022-07-23T08:44:57;22.52;;;11.57;;
39490;SDS011;25175;50.140;18.990;2022-07-23T08:48:01;23.70;;;10.93;;
39490;SDS011;25175;50.140;18.990;2022-07-23T08:51:04;27.13;;;11.38;;
39490;SDS011;25175;50.140;18.990;2022-07-23T08:54:07;17.83;;;10.75;;
39490;SDS011;25175;50.140;18.990;2022-07-23T08:57:10;20.40;;;10.60;;
39490;SDS011;25175;50.140;18.990;2022-07-23T09:00:14;16.48;;;9.98;;
39490;SDS011;25175;50.140;18.990;2022-07-23T09:03:18;16.83;;;9.52;;
39490;SDS011;25175;50.140;18.990;2022-07-23T09:06:22;17.50;;;9.43;;
39490;SDS011;25175;50.140;18.990;2022-07-23T09:09:24;17.08;;;9.95;;
39490;SDS011;25175;50.140;18.990;2022-07-23T09:12:30;17.25;;;9.68;;
39490;SDS011;25175;50.140;18.990;2022-07-23T09:15:32;14.60;;;9.35;;
39490;SDS011;25175;50.140;18.990;2022-07-23T09:18:40;17.73;;;9.88;;
39490;SDS011;25175;50.140;18.990;2022-07-23T09:21:44;13.80;;;9.35;;
39490;SDS011;25175;50.140;18.990;2022-07-23T09:28:05;15.75;;;9.57;;
39490;SDS011;25175;50.140;18.990;2022-07-23T09:31:08;13.35;;;8.57;;
39490;SDS011;25175;50.140;18.990;2022-07-23T09:34:12;12.70;;;8.02;;
39490;SDS011;25175;50.140;18.990;2022-07-23T09:37:17;14.15;;;7.20;;
39490;SDS011;25175;50.140;18.990;2022-07-23T09:40:20;11.52;;;6.57;;
39490;SDS011;25175;50.140;18.990;2022-07-23T09:43:25;10.90;;;6.47;;
39490;SDS011;25175;50.140;18.990;2022-07-23T09:49:32;11.40;;;7.50;;
39490;SDS011;25175;50.140;18.990;2022-07-23T09:52:35;11.25;;;6.63;;
39490;SDS011;25175;50.140;18.990;2022-07-23T09:55:44;13.70;;;6.93;;
39490;SDS011;25175;50.140;18.990;2022-07-23T09:58:46;8.50;;;6.47;;
39490;SDS011;25175;50.140;18.990;2022-07-23T10:01:52;8.90;;;6.38;;
39490;SDS011;25175;50.140;18.990;2022-07-23T10:04:58;10.27;;;6.60;;
39490;SDS011;25175;50.140;18.990;2022-07-23T10:08:40;10.60;;;6.70;;
39490;SDS011;25175;50.140;18.990;2022-07-23T10:12:09;8.60;;;6.93;;
39490;SDS011;25175;50.140;18.990;2022-07-23T10:15:30;12.02;;;7.32;;
39490;SDS011;25175;50.140;18.990;2022-07-23T10:18:32;10.95;;;7.60;;
39490;SDS011;25175;50.140;18.990;2022-07-23T10:21:41;9.90;;;7.20;;
39490;SDS011;25175;50.140;18.990;2022-07-23T10:24:58;10.38;;;7.35;;
39490;SDS011;25175;50.140;18.990;2022-07-23T10:28:08;10.25;;;7.53;;
39490;SDS011;25175;50.140;18.990;2022-07-23T10:31:27;10.18;;;7.40;;
39490;SDS011;25175;50.140;18.990;2022-07-23T10:34:39;11.77;;;7.30;;
39490;SDS011;25175;50.140;18.990;2022-07-23T10:37:47;10.00;;;6.75;;
39490;SDS011;25175;50.140;18.990;2022-07-23T10:40:53;11.23;;;6.88;;
39490;SDS011;25175;50.140;18.990;2022-07-23T10:44:05;10.27;;;6.70;;
39490;SDS011;25175;50.140;18.990;2022-07-23T10:47:08;8.82;;;6.25;;
39490;SDS011;25175;50.140;18.990;2022-07-23T10:50:23;13.23;;;6.63;;
39490;SDS011;25175;50.140;18.990;2022-07-23T10:53:29;10.88;;;6.40;;
39490;SDS011;25175;50.140;18.990;2022-07-23T10:57:05;11.18;;;6.32;;
39490;SDS011;25175;50.140;18.990;2022-07-23T11:00:11;9.05;;;6.32;;
39490;SDS011;25175;50.140;18.990;2022-07-23T11:03:33;9.98;;;6.63;;
39490;SDS011;25175;50.140;18.990;2022-07-23T11:10:17;9.95;;;6.80;;
39490;SDS011;25175;50.140;18.990;2022-07-23T11:13:37;9.82;;;6.60;;
39490;SDS011;25175;50.140;18.990;2022-07-23T11:16:45;11.23;;;6.43;;
39490;SDS011;25175;50.140;18.990;2022-07-23T11:23:21;10.32;;;5.82;;
39490;SDS011;25175;50.140;18.990;2022-07-23T11:29:47;10.30;;;6.15;;
39490;SDS011;25175;50.140;18.990;2022-07-23T11:32:51;11.25;;;6.07;;
39490;SDS011;25175;50.140;18.990;2022-07-23T11:36:04;9.60;;;6.32;;
39490;SDS011;25175;50.140;18.990;2022-07-23T11:39:06;10.77;;;6.22;;
39490;SDS011;25175;50.140;18.990;2022-07-23T11:42:11;7.60;;;6.10;;
39490;SDS011;25175;50.140;18.990;2022-07-23T11:45:19;9.30;;;6.25;;
39490;SDS011;25175;50.140;18.990;2022-07-23T11:48:22;10.27;;;6.30;;
39490;SDS011;25175;50.140;18.990;2022-07-23T11:51:26;8.50;;;6.00;;
39490;SDS011;25175;50.140;18.990;2022-07-23T11:54:28;9.93;;;5.85;;
39490;SDS011;25175;50.140;18.990;2022-07-23T11:57:32;9.30;;;6.32;;
39490;SDS011;25175;50.140;18.990;2022-07-23T12:00:35;9.50;;;5.90;;
39490;SDS011;25175;50.140;18.990;2022-07-23T12:03:48;8.20;;;6.13;;
39490;SDS011;25175;50.140;18.990;2022-07-23T12:06:51;8.30;;;5.57;;
39490;SDS011;25175;50.140;18.990;2022-07-23T12:09:53;6.50;;;5.50;;
39490;SDS011;25175;50.140;18.990;2022-07-23T12:12:59;10.23;;;6.05;;
39490;SDS011;25175;50.140;18.990;2022-07-23T12:16:02;8.10;;;5.57;;
39490;SDS011;25175;50.140;18.990;2022-07-23T12:19:05;12.30;;;6.13;;
39490;SDS011;25175;50.140;18.990;2022-07-23T12:22:07;17.38;;;6.82;;
39490;SDS011;25175;50.140;18.990;2022-07-23T12:25:12;9.02;;;6.60;;
39490;SDS011;25175;50.140;18.990;2022-07-23T12:28:17;10.55;;;7.10;;
39490;SDS011;25175;50.140;18.990;2022-07-23T12:31:25;13.32;;;7.13;;
39490;SDS011;25175;50.140;18.990;2022-07-23T12:34:27;9.35;;;6.80;;
39490;SDS011;25175;50.140;18.990;2022-07-23T12:37:30;9.85;;;6.72;;
39490;SDS011;25175;50.140;18.990;2022-07-23T12:40:34;9.32;;;6.80;;
39490;SDS011;25175;50.140;18.990;2022-07-23T12:43:40;8.27;;;6.80;;
39490;SDS011;25175;50.140;18.990;2022-07-23T12:46:44;9.98;;;6.50;;
39490;SDS011;25175;50.140;18.990;2022-07-23T12:49:51;11.13;;;6.90;;
39490;SDS011;25175;50.140;18.990;2022-07-23T12:53:00;11.70;;;7.20;;
39490;SDS011;25175;50.140;18.990;2022-07-23T12:56:05;9.27;;;6.80;;
39490;SDS011;25175;50.140;18.990;2022-07-23T12:59:11;11.07;;;7.07;;
39490;SDS011;25175;50.140;18.990;2022-07-23T13:02:17;9.10;;;6.60;;
39490;SDS011;25175;50.140;18.990;2022-07-23T13:05:19;10.35;;;6.20;;
39490;SDS011;25175;50.140;18.990;2022-07-23T13:08:21;10.52;;;6.32;;
39490;SDS011;25175;50.140;18.990;2022-07-23T13:11:24;13.30;;;7.20;;
39490;SDS011;25175;50.140;18.990;2022-07-23T13:14:28;13.93;;;7.15;;
39490;SDS011;25175;50.140;18.990;2022-07-23T13:17:30;18.23;;;8.05;;
39490;SDS011;25175;50.140;18.990;2022-07-23T13:20:32;14.85;;;7.53;;
39490;SDS011;25175;50.140;18.990;2022-07-23T13:23:35;16.60;;;8.07;;
39490;SDS011;25175;50.140;18.990;2022-07-23T13:26:38;14.80;;;8.48;;
39490;SDS011;25175;50.140;18.990;2022-07-23T13:29:42;15.20;;;8.43;;
39490;SDS011;25175;50.140;18.990;2022-07-23T13:32:44;13.73;;;7.60;;
39490;SDS011;25175;50.140;18.990;2022-07-23T13:35:46;13.98;;;7.65;;
39490;SDS011;25175;50.140;18.990;2022-07-23T13:38:49;16.50;;;8.00;;
39490;SDS011;25175;50.140;18.990;2022-07-23T13:41:51;14.82;;;8.10;;
39490;SDS011;25175;50.140;18.990;2022-07-23T13:44:54;11.52;;;6.93;;
39490;SDS011;25175;50.140;18.990;2022-07-23T13:47:57;16.02;;;7.68;;
39490;SDS011;25175;50.140;18.990;2022-07-23T13:50:59;13.23;;;8.23;;
39490;SDS011;25175;50.140;18.990;2022-07-23T13:54:01;13.85;;;8.18;;
39490;SDS011;25175;50.140;18.990;2022-07-23T13:57:03;14.57;;;8.70;;
39490;SDS011;25175;50.140;18.990;2022-07-23T14:00:08;16.38;;;10.40;;
39490;SDS011;25175;50.140;18.990;2022-07-23T14:03:15;18.08;;;10.57;;
39490;SDS011;25175;50.140;18.990;2022-07-23T14:06:17;14.70;;;9.20;;
39490;SDS011;25175;50.140;18.990;2022-07-23T14:09:19;14.00;;;8.73;;
39490;SDS011;25175;50.140;18.990;2022-07-23T14:12:21;12.13;;;8.45;;
39490;SDS011;25175;50.140;18.990;2022-07-23T14:15:25;22.85;;;14.18;;
39490;SDS011;25175;50.140;18.990;2022-07-23T14:18:28;21.17;;;10.82;;
39490;SDS011;25175;50.140;18.990;2022-07-23T14:21:30;16.85;;;9.68;;
39490;SDS011;25175;50.140;18.990;2022-07-23T14:29:07;14.25;;;9.45;;
39490;SDS011;25175;50.140;18.990;2022-07-23T14:32:11;12.90;;;9.73;;
39490;SDS011;25175;50.140;18.990;2022-07-23T14:35:13;14.85;;;9.32;;
39490;SDS011;25175;50.140;18.990;2022-07-23T14:38:15;24.85;;;9.88;;
39490;SDS011;25175;50.140;18.990;2022-07-23T14:41:18;23.55;;;9.10;;
39490;SDS011;25175;50.140;18.990;2022-07-23T14:44:20;30.85;;;8.75;;
39490;SDS011;25175;50.140;18.990;2022-07-23T14:47:23;23.73;;;9.32;;
39490;SDS011;25175;50.140;18.990;2022-07-23T14:50:26;18.00;;;8.60;;
39490;SDS011;25175;50.140;18.990;2022-07-23T14:53:28;16.95;;;8.80;;
39490;SDS011;25175;50.140;18.990;2022-07-23T14:56:30;16.73;;;9.55;;
39490;SDS011;25175;50.140;18.990;2022-07-23T14:59:34;18.38;;;8.70;;
39490;SDS011;25175;50.140;18.990;2022-07-23T15:02:37;19.55;;;9.15;;
39490;SDS011;25175;50.140;18.990;2022-07-23T15:05:39;23.05;;;9.35;;
39490;SDS011;25175;50.140;18.990;2022-07-23T15:08:41;17.27;;;8.70;;
39490;SDS011;25175;50.140;18.990;2022-07-23T15:11:44;19.17;;;8.88;;
39490;SDS011;25175;50.140;18.990;2022-07-23T15:14:46;20.50;;;9.00;;
39490;SDS011;25175;50.140;18.990;2022-07-23T15:17:49;16.95;;;9.70;;
39490;SDS011;25175;50.140;18.990;2022-07-23T15:20:51;14.80;;;8.98;;
39490;SDS011;25175;50.140;18.990;2022-07-23T15:23:53;18.98;;;9.75;;
39490;SDS011;25175;50.140;18.990;2022-07-23T15:26:56;15.43;;;9.00;;
39490;SDS011;25175;50.140;18.990;2022-07-23T15:29:59;16.98;;;8.90;;
39490;SDS011;25175;50.140;18.990;2022-07-23T15:33:03;14.88;;;8.55;;
39490;SDS011;25175;50.140;18.990;2022-07-23T15:36:06;14.30;;;8.63;;
39490;SDS011;25175;50.140;18.990;2022-07-23T15:39:09;16.20;;;8.90;;
39490;SDS011;25175;50.140;18.990;2022-07-23T15:42:12;15.15;;;8.95;;
39490;SDS011;25175;50.140;18.990;2022-07-23T15:45:15;22.15;;;9.45;;
39490;SDS011;25175;50.140;18.990;2022-07-23T15:48:18;14.55;;;8.60;;
39490;SDS011;25175;50.140;18.990;2022-07-23T15:51:21;17.92;;;8.73;;
39490;SDS011;25175;50.140;18.990;2022-07-23T15:54:23;22.70;;;12.88;;
39490;SDS011;25175;50.140;18.990;2022-07-23T15:57:25;17.45;;;9.27;;
39490;SDS011;25175;50.140;18.990;2022-07-23T16:00:28;18.40;;;10.38;;
39490;SDS011;25175;50.140;18.990;2022-07-23T16:03:31;16.08;;;9.40;;
39490;SDS011;25175;50.140;18.990;2022-07-23T16:06:37;15.18;;;9.05;;
39490;SDS011;25175;50.140;18.990;2022-07-23T16:09:41;19.42;;;10.52;;
39490;SDS011;25175;50.140;18.990;2022-07-23T16:12:43;13.60;;;8.73;;
39490;SDS011;25175;50.140;18.990;2022-07-23T16:15:45;16.38;;;9.68;;
39490;SDS011;25175;50.140;18.990;2022-07-23T16:18:49;18.17;;;9.05;;
39490;SDS011;25175;50.140;18.990;2022-07-23T16:21:51;11.40;;;8.77;;
39490;SDS011;25175;50.140;18.990;2022-07-23T16:24:53;16.60;;;9.05;;
39490;SDS011;25175;50.140;18.990;2022-07-23T16:27:55;12.90;;;8.80;;
39490;SDS011;25175;50.140;18.990;2022-07-23T16:30:58;17.05;;;9.43;;
39490;SDS011;25175;50.140;18.990;2022-07-23T16:34:01;20.85;;;12.80;;
39490;SDS011;25175;50.140;18.990;2022-07-23T16:37:03;17.98;;;12.02;;
39490;SDS011;25175;50.140;18.990;2022-07-23T16:40:06;18.08;;;11.68;;
39490;SDS011;25175;50.140;18.990;2022-07-23T16:43:09;17.00;;;10.40;;
39490;SDS011;25175;50.140;18.990;2022-07-23T16:46:12;17.80;;;10.05;;
39490;SDS011;25175;50.140;18.990;2022-07-23T16:49:16;14.90;;;9.40;;
39490;SDS011;25175;50.140;18.990;2022-07-23T16:52:18;13.90;;;9.40;;
39490;SDS011;25175;50.140;18.990;2022-07-23T16:55:20;15.23;;;8.85;;
39490;SDS011;25175;50.140;18.990;2022-07-23T16:58:23;16.55;;;9.93;;
39490;SDS011;25175;50.140;18.990;2022-07-23T17:01:25;17.33;;;9.80;;
39490;SDS011;25175;50.140;18.990;2022-07-23T17:04:29;13.20;;;9.68;;
39490;SDS011;25175;50.140;18.990;2022-07-23T17:07:31;17.98;;;11.60;;
39490;SDS011;25175;50.140;18.990;2022-07-23T17:10:33;21.40;;;13.48;;
39490;SDS011;25175;50.140;18.990;2022-07-23T17:13:35;22.58;;;13.45;;
39490;SDS011;25175;50.140;18.990;2022-07-23T17:16:37;21.52;;;10.93;;
39490;SDS011;25175;50.140;18.990;2022-07-23T17:19:41;16.23;;;9.65;;
39490;SDS011;25175;50.140;18.990;2022-07-23T17:22:43;23.40;;;10.73;;
39490;SDS011;25175;50.140;18.990;2022-07-23T17:25:45;23.73;;;13.50;;
39490;SDS011;25175;50.140;18.990;2022-07-23T17:28:47;22.67;;;11.68;;
39490;SDS011;25175;50.140;18.990;2022-07-23T17:31:49;17.58;;;11.40;;
39490;SDS011;25175;50.140;18.990;2022-07-23T17:34:53;20.85;;;11.30;;
39490;SDS011;25175;50.140;18.990;2022-07-23T17:37:55;15.02;;;9.95;;
39490;SDS011;25175;50.140;18.990;2022-07-23T17:40:57;17.25;;;10.30;;
39490;SDS011;25175;50.140;18.990;2022-07-23T17:44:00;16.70;;;10.68;;
39490;SDS011;25175;50.140;18.990;2022-07-23T17:47:02;20.85;;;11.80;;
39490;SDS011;25175;50.140;18.990;2022-07-23T17:50:06;19.60;;;10.95;;
39490;SDS011;25175;50.140;18.990;2022-07-23T17:53:09;16.92;;;9.60;;
39490;SDS011;25175;50.140;18.990;2022-07-23T17:56:11;13.18;;;9.40;;
39490;SDS011;25175;50.140;18.990;2022-07-23T17:59:13;22.02;;;11.73;;
39490;SDS011;25175;50.140;18.990;2022-07-23T18:02:16;18.48;;;11.30;;
39490;SDS011;25175;50.140;18.990;2022-07-23T18:05:20;25.48;;;10.45;;
39490;SDS011;25175;50.140;18.990;2022-07-23T18:08:22;21.90;;;10.82;;
39490;SDS011;25175;50.140;18.990;2022-07-23T18:11:24;21.98;;;9.95;;